aviador You're here:

KVAD Decoded Metar

VALDOSTA in GA, USA
Report Time2017-08-19 13:58:00
UTC Time2017-08-19 14:57:53
Flight Rules vfr VFR
Wind350° at 03 kt
W.Decomp.*RWY 36: 3.0 kt HW 0.4 kt LCW
W.Rank350° ranks 32
Current wind is below 350° avg. (6.1)
Visibility9999 m
Phenomena:N/A
Clouds:N/A
Expected CloudBase > 2,000 ft AGL from Temp-Dew spread
CeilingNone
Temp29°C (ISA +14)
Dew Point24°C (74% RH)
Heat Index33.5°C
QNH1016 hPa
Density Alt2,185 ft
Elevation233 ft
Report Wrong Elevation
Raw Report
KVAD 191358Z 35003KT 10SM CLR 29/24 A2999 RMK AO2A SLP155
T02910236 $=

Extra information for KVAD:More info

Metar Taf Metar & Taf Last 4 Metars F.Rules Stats Wind Profile Meteogram Temp Stats Airport Information Weather charts Add Link Nearby VenuesMetar ALERT Operation Metar Decoded Social comments

AIRNAV info for KVAD